sensor_id;sensor_type;location;lat;lon;timestamp;pressure;altitude;pressure_sealevel;temperature;humidity
3082;BME280;1551;51.046;7.010;2023-03-25T00:01:34;99788.78;;;11.23;74.42
3082;BME280;1551;51.046;7.010;2023-03-25T00:04:23;99799.06;;;11.21;73.49
3082;BME280;1551;51.046;7.010;2023-03-25T00:07:15;99790.69;;;11.15;73.26
3082;BME280;1551;51.046;7.010;2023-03-25T00:10:07;99788.13;;;11.15;73.04
3082;BME280;1551;51.046;7.010;2023-03-25T00:12:56;99774.00;;;11.01;73.14
3082;BME280;1551;51.046;7.010;2023-03-25T00:15:53;99790.78;;;11.12;72.59
3082;BME280;1551;51.046;7.010;2023-03-25T00:18:46;99787.41;;;11.10;72.23
3082;BME280;1551;51.046;7.010;2023-03-25T00:21:35;99779.72;;;11.10;72.71
3082;BME280;1551;51.046;7.010;2023-03-25T00:24:25;99782.16;;;11.14;71.88
3082;BME280;1551;51.046;7.010;2023-03-25T00:27:14;99788.09;;;11.16;71.56
3082;BME280;1551;51.046;7.010;2023-03-25T00:30:05;99787.88;;;11.24;71.31
3082;BME280;1551;51.046;7.010;2023-03-25T00:32:54;99774.16;;;11.26;71.59
3082;BME280;1551;51.046;7.010;2023-03-25T00:35:45;99777.50;;;11.30;70.89
3082;BME280;1551;51.046;7.010;2023-03-25T00:38:37;99781.69;;;11.32;70.75
3082;BME280;1551;51.046;7.010;2023-03-25T00:41:26;99792.00;;;11.29;70.94
3082;BME280;1551;51.046;7.010;2023-03-25T00:44:15;99780.91;;;11.29;70.58
3082;BME280;1551;51.046;7.010;2023-03-25T00:47:05;99774.09;;;11.29;70.87
3082;BME280;1551;51.046;7.010;2023-03-25T00:49:54;99786.03;;;11.29;70.29
3082;BME280;1551;51.046;7.010;2023-03-25T00:52:43;99793.59;;;11.33;70.35
3082;BME280;1551;51.046;7.010;2023-03-25T00:55:32;99781.63;;;11.34;69.81
3082;BME280;1551;51.046;7.010;2023-03-25T00:58:21;99779.94;;;11.34;69.55
3082;BME280;1551;51.046;7.010;2023-03-25T01:01:13;99786.69;;;11.37;68.87
3082;BME280;1551;51.046;7.010;2023-03-25T01:04:03;99784.25;;;11.32;68.43
3082;BME280;1551;51.046;7.010;2023-03-25T01:06:52;99786.03;;;11.29;68.42
3082;BME280;1551;51.046;7.010;2023-03-25T01:09:43;99768.75;;;11.37;68.51
3082;BME280;1551;51.046;7.010;2023-03-25T01:12:34;99773.78;;;11.40;67.83
3082;BME280;1551;51.046;7.010;2023-03-25T01:15:23;99769.44;;;11.42;66.92
3082;BME280;1551;51.046;7.010;2023-03-25T01:18:13;99755.03;;;11.39;66.87
3082;BME280;1551;51.046;7.010;2023-03-25T01:21:04;99766.94;;;11.40;66.85
3082;BME280;1551;51.046;7.010;2023-03-25T01:23:53;99762.00;;;11.33;66.90
3082;BME280;1551;51.046;7.010;2023-03-25T01:26:43;99767.06;;;11.36;66.61
3082;BME280;1551;51.046;7.010;2023-03-25T01:29:33;99768.78;;;11.35;66.62
3082;BME280;1551;51.046;7.010;2023-03-25T01:32:22;99778.22;;;11.33;66.83
3082;BME280;1551;51.046;7.010;2023-03-25T01:35:11;99772.53;;;11.24;67.08
3082;BME280;1551;51.046;7.010;2023-03-25T01:38:00;99758.31;;;11.12;67.44
3082;BME280;1551;51.046;7.010;2023-03-25T01:40:50;99778.56;;;11.21;67.67
3082;BME280;1551;51.046;7.010;2023-03-25T01:43:40;99763.13;;;11.24;67.34
3082;BME280;1551;51.046;7.010;2023-03-25T01:46:29;99776.66;;;11.28;68.05
3082;BME280;1551;51.046;7.010;2023-03-25T01:49:23;99756.19;;;11.28;68.21
3082;BME280;1551;51.046;7.010;2023-03-25T01:52:23;99748.53;;;11.26;68.15
3082;BME280;1551;51.046;7.010;2023-03-25T01:55:13;99747.81;;;11.23;68.00
3082;BME280;1551;51.046;7.010;2023-03-25T01:58:08;99751.91;;;11.28;68.48
3082;BME280;1551;51.046;7.010;2023-03-25T02:01:02;99751.91;;;11.28;67.98
3082;BME280;1551;51.046;7.010;2023-03-25T02:03:53;99753.63;;;11.28;68.24
3082;BME280;1551;51.046;7.010;2023-03-25T02:06:51;99731.63;;;11.21;67.73
3082;BME280;1551;51.046;7.010;2023-03-25T02:09:42;99740.81;;;11.28;67.88
3082;BME280;1551;51.046;7.010;2023-03-25T02:12:31;99741.50;;;11.34;68.08
3082;BME280;1551;51.046;7.010;2023-03-25T02:15:20;99730.00;;;11.18;67.60
3082;BME280;1551;51.046;7.010;2023-03-25T02:18:20;99729.19;;;11.16;67.78
3082;BME280;1551;51.046;7.010;2023-03-25T02:27:43;99745.25;;;10.90;69.49
3082;BME280;1551;51.046;7.010;2023-03-25T02:30:50;99747.91;;;10.87;70.66
3082;BME280;1551;51.046;7.010;2023-03-25T02:33:45;99737.75;;;10.84;71.54
3082;BME280;1551;51.046;7.010;2023-03-25T02:36:43;99736.09;;;10.82;72.82
3082;BME280;1551;51.046;7.010;2023-03-25T02:39:42;99737.88;;;10.80;72.72
3082;BME280;1551;51.046;7.010;2023-03-25T02:42:47;99751.72;;;10.73;72.91
3082;BME280;1551;51.046;7.010;2023-03-25T02:45:46;99730.69;;;10.62;73.04
3082;BME280;1551;51.046;7.010;2023-03-25T02:48:49;99744.94;;;10.70;73.71
3082;BME280;1551;51.046;7.010;2023-03-25T02:51:49;99743.34;;;10.66;73.01
3082;BME280;1551;51.046;7.010;2023-03-25T02:54:42;99739.75;;;10.73;73.33
3082;BME280;1551;51.046;7.010;2023-03-25T02:57:34;99746.53;;;10.74;73.50
3082;BME280;1551;51.046;7.010;2023-03-25T03:00:27;99745.63;;;10.77;73.26
3082;BME280;1551;51.046;7.010;2023-03-25T03:03:17;99741.28;;;10.80;73.76
3082;BME280;1551;51.046;7.010;2023-03-25T03:06:14;99738.50;;;10.88;73.13
3082;BME280;1551;51.046;7.010;2023-03-25T03:09:20;99748.72;;;10.88;72.89
3082;BME280;1551;51.046;7.010;2023-03-25T03:12:20;99744.09;;;10.70;73.50
3082;BME280;1551;51.046;7.010;2023-03-25T03:18:41;99731.28;;;10.71;74.07
3082;BME280;1551;51.046;7.010;2023-03-25T03:21:43;99731.34;;;10.68;73.96
3082;BME280;1551;51.046;7.010;2023-03-25T03:24:40;99727.16;;;10.66;73.17
3082;BME280;1551;51.046;7.010;2023-03-25T03:27:35;99733.13;;;10.66;73.68
3082;BME280;1551;51.046;7.010;2023-03-25T03:30:36;99730.34;;;10.74;73.91
3082;BME280;1551;51.046;7.010;2023-03-25T03:33:35;99738.91;;;10.73;72.76
3082;BME280;1551;51.046;7.010;2023-03-25T03:36:31;99742.19;;;10.78;73.45
3082;BME280;1551;51.046;7.010;2023-03-25T03:39:34;99717.75;;;10.66;72.65
3082;BME280;1551;51.046;7.010;2023-03-25T03:42:32;99731.13;;;10.77;72.57
3082;BME280;1551;51.046;7.010;2023-03-25T03:45:46;99736.16;;;10.80;72.50
3082;BME280;1551;51.046;7.010;2023-03-25T03:48:41;99741.34;;;10.77;72.57
3082;BME280;1551;51.046;7.010;2023-03-25T03:51:36;99745.75;;;10.72;71.92
3082;BME280;1551;51.046;7.010;2023-03-25T03:54:41;99739.78;;;10.72;73.04
3082;BME280;1551;51.046;7.010;2023-03-25T03:57:38;99738.25;;;10.66;72.91
3082;BME280;1551;51.046;7.010;2023-03-25T04:00:34;99739.09;;;10.65;71.86
3082;BME280;1551;51.046;7.010;2023-03-25T04:03:37;99728.38;;;10.51;72.84
3082;BME280;1551;51.046;7.010;2023-03-25T04:06:37;99749.63;;;10.55;71.88
3082;BME280;1551;51.046;7.010;2023-03-25T04:09:37;99740.22;;;10.55;73.02
3082;BME280;1551;51.046;7.010;2023-03-25T04:12:35;99749.53;;;10.58;71.96
3082;BME280;1551;51.046;7.010;2023-03-25T04:15:25;99765.03;;;10.52;72.48
3082;BME280;1551;51.046;7.010;2023-03-25T04:18:14;99739.38;;;10.55;71.90
3082;BME280;1551;51.046;7.010;2023-03-25T04:21:04;99720.25;;;10.35;72.53
3082;BME280;1551;51.046;7.010;2023-03-25T04:23:53;99746.16;;;10.56;71.78
3082;BME280;1551;51.046;7.010;2023-03-25T04:26:42;99740.81;;;10.66;71.61
3082;BME280;1551;51.046;7.010;2023-03-25T04:29:31;99738.31;;;10.63;71.32
3082;BME280;1551;51.046;7.010;2023-03-25T04:32:22;99746.72;;;10.68;71.54
3082;BME280;1551;51.046;7.010;2023-03-25T04:35:15;99746.72;;;10.68;70.87
3082;BME280;1551;51.046;7.010;2023-03-25T04:38:05;99741.72;;;10.64;70.55
3082;BME280;1551;51.046;7.010;2023-03-25T04:40:55;99740.97;;;10.59;70.75
3082;BME280;1551;51.046;7.010;2023-03-25T04:43:44;99742.56;;;10.63;70.08
3082;BME280;1551;51.046;7.010;2023-03-25T04:46:33;99740.19;;;10.57;70.08
3082;BME280;1551;51.046;7.010;2023-03-25T04:49:23;99749.41;;;10.62;69.28
3082;BME280;1551;51.046;7.010;2023-03-25T04:52:12;99744.22;;;10.65;70.24
3082;BME280;1551;51.046;7.010;2023-03-25T04:55:01;99765.50;;;10.67;68.94
3082;BME280;1551;51.046;7.010;2023-03-25T04:57:53;99732.47;;;10.58;68.88
3082;BME280;1551;51.046;7.010;2023-03-25T05:00:45;99741.63;;;10.67;69.32
3082;BME280;1551;51.046;7.010;2023-03-25T05:03:36;99733.88;;;10.70;69.03
3082;BME280;1551;51.046;7.010;2023-03-25T05:06:27;99740.69;;;10.71;68.73
3082;BME280;1551;51.046;7.010;2023-03-25T05:09:18;99728.94;;;10.62;68.92
3082;BME280;1551;51.046;7.010;2023-03-25T05:12:10;99740.81;;;10.66;68.76
3082;BME280;1551;51.046;7.010;2023-03-25T05:14:59;99739.78;;;10.72;68.34
3082;BME280;1551;51.046;7.010;2023-03-25T05:17:48;99730.38;;;10.72;68.34
3082;BME280;1551;51.046;7.010;2023-03-25T05:20:41;99734.88;;;10.64;68.66
3082;BME280;1551;51.046;7.010;2023-03-25T05:23:30;99720.44;;;10.62;68.32
3082;BME280;1551;51.046;7.010;2023-03-25T05:26:19;99733.00;;;10.71;67.99
3082;BME280;1551;51.046;7.010;2023-03-25T05:29:10;99738.00;;;10.74;68.31
3082;BME280;1551;51.046;7.010;2023-03-25T05:32:01;99737.09;;;10.76;67.98
3082;BME280;1551;51.046;7.010;2023-03-25T05:34:53;99740.69;;;10.71;68.27
3082;BME280;1551;51.046;7.010;2023-03-25T05:37:42;99738.13;;;10.71;67.92
3082;BME280;1551;51.046;7.010;2023-03-25T05:40:31;99753.31;;;10.77;67.67
3082;BME280;1551;51.046;7.010;2023-03-25T05:43:21;99751.28;;;10.88;67.75
3082;BME280;1551;51.046;7.010;2023-03-25T05:46:10;99748.66;;;10.91;66.72
3082;BME280;1551;51.046;7.010;2023-03-25T05:48:59;99754.81;;;10.84;66.99
3082;BME280;1551;51.046;7.010;2023-03-25T05:51:48;99755.66;;;10.84;67.36
3082;BME280;1551;51.046;7.010;2023-03-25T05:54:45;99758.28;;;10.83;66.84
3082;BME280;1551;51.046;7.010;2023-03-25T05:57:38;99741.88;;;10.90;67.77
3082;BME280;1551;51.046;7.010;2023-03-25T06:00:27;99751.09;;;10.95;67.39
3082;BME280;1551;51.046;7.010;2023-03-25T06:03:18;99759.44;;;11.03;67.11
3082;BME280;1551;51.046;7.010;2023-03-25T06:06:08;99763.66;;;11.04;66.39
3082;BME280;1551;51.046;7.010;2023-03-25T06:09:01;99761.44;;;10.92;66.58
3082;BME280;1551;51.046;7.010;2023-03-25T06:11:50;99749.38;;;10.96;66.59
3082;BME280;1551;51.046;7.010;2023-03-25T06:14:41;99752.81;;;10.95;66.40
3082;BME280;1551;51.046;7.010;2023-03-25T06:17:34;99752.69;;;10.99;66.90
3082;BME280;1551;51.046;7.010;2023-03-25T06:20:26;99745.06;;;10.98;66.40
3082;BME280;1551;51.046;7.010;2023-03-25T06:23:15;99780.06;;;10.97;66.91
3082;BME280;1551;51.046;7.010;2023-03-25T06:26:04;99757.38;;;10.84;68.52
3082;BME280;1551;51.046;7.010;2023-03-25T06:28:53;99776.53;;;10.69;69.66
3082;BME280;1551;51.046;7.010;2023-03-25T06:31:42;99760.00;;;10.49;71.20
3082;BME280;1551;51.046;7.010;2023-03-25T06:34:32;99758.41;;;10.45;73.03
3082;BME280;1551;51.046;7.010;2023-03-25T06:37:21;99747.25;;;10.46;73.75
3082;BME280;1551;51.046;7.010;2023-03-25T06:40:15;99762.53;;;10.50;74.91
3082;BME280;1551;51.046;7.010;2023-03-25T06:43:05;99760.78;;;10.52;75.09
3082;BME280;1551;51.046;7.010;2023-03-25T06:46:27;99759.25;;;10.44;75.47
3082;BME280;1551;51.046;7.010;2023-03-25T06:49:34;99767.03;;;10.39;75.02
3082;BME280;1551;51.046;7.010;2023-03-25T06:52:23;99753.34;;;10.42;75.05
3082;BME280;1551;51.046;7.010;2023-03-25T06:55:12;99755.72;;;10.49;74.90
3082;BME280;1551;51.046;7.010;2023-03-25T06:58:01;99764.75;;;10.62;74.35
3082;BME280;1551;51.046;7.010;2023-03-25T07:00:53;99757.69;;;10.72;73.87
3082;BME280;1551;51.046;7.010;2023-03-25T07:03:43;99761.75;;;10.80;73.06
3082;BME280;1551;51.046;7.010;2023-03-25T07:06:32;99779.66;;;10.80;73.01
3082;BME280;1551;51.046;7.010;2023-03-25T07:09:21;99795.81;;;10.82;72.20
3082;BME280;1551;51.046;7.010;2023-03-25T07:12:11;99781.34;;;10.81;72.03
3082;BME280;1551;51.046;7.010;2023-03-25T07:15:00;99781.16;;;10.89;71.96
3082;BME280;1551;51.046;7.010;2023-03-25T07:17:52;99796.56;;;10.86;71.65
3082;BME280;1551;51.046;7.010;2023-03-25T07:20:44;99790.63;;;10.85;71.30
3082;BME280;1551;51.046;7.010;2023-03-25T07:23:33;99787.97;;;10.88;71.64
3082;BME280;1551;51.046;7.010;2023-03-25T07:26:22;99783.41;;;10.99;71.27
3082;BME280;1551;51.046;7.010;2023-03-25T07:29:11;99782.34;;;11.08;71.87
3082;BME280;1551;51.046;7.010;2023-03-25T07:32:00;99795.78;;;11.16;70.74
3082;BME280;1551;51.046;7.010;2023-03-25T07:34:49;99788.97;;;11.15;71.19
3082;BME280;1551;51.046;7.010;2023-03-25T07:37:38;99788.91;;;11.18;71.54
3082;BME280;1551;51.046;7.010;2023-03-25T07:40:27;99805.69;;;11.28;71.74
3082;BME280;1551;51.046;7.010;2023-03-25T07:43:16;99781.19;;;11.20;72.10
3082;BME280;1551;51.046;7.010;2023-03-25T07:46:11;99790.28;;;11.30;71.66
3082;BME280;1551;51.046;7.010;2023-03-25T07:49:00;99798.13;;;11.24;71.40
3082;BME280;1551;51.046;7.010;2023-03-25T07:51:49;99786.50;;;11.12;71.90
3082;BME280;1551;51.046;7.010;2023-03-25T07:54:38;99796.47;;;11.23;71.34
3082;BME280;1551;51.046;7.010;2023-03-25T07:57:26;99798.44;;;11.12;71.17
3082;BME280;1551;51.046;7.010;2023-03-25T08:00:15;99789.09;;;11.11;71.40
3082;BME280;1551;51.046;7.010;2023-03-25T08:03:04;99789.13;;;11.09;71.14
3082;BME280;1551;51.046;7.010;2023-03-25T08:05:54;99796.38;;;11.26;72.02
3082;BME280;1551;51.046;7.010;2023-03-25T08:08:43;99803.22;;;11.25;71.01
3082;BME280;1551;51.046;7.010;2023-03-25T08:11:32;99813.25;;;11.33;70.93
3082;BME280;1551;51.046;7.010;2023-03-25T08:14:21;99819.81;;;11.43;70.52
3082;BME280;1551;51.046;7.010;2023-03-25T08:17:10;99813.00;;;11.42;70.63
3082;BME280;1551;51.046;7.010;2023-03-25T08:19:59;99827.28;;;11.50;69.97
3082;BME280;1551;51.046;7.010;2023-03-25T08:22:48;99824.84;;;11.46;69.88
3082;BME280;1551;51.046;7.010;2023-03-25T08:25:39;99831.69;;;11.45;69.20
3082;BME280;1551;51.046;7.010;2023-03-25T08:28:30;99835.09;;;11.46;69.58
3082;BME280;1551;51.046;7.010;2023-03-25T08:31:20;99846.19;;;11.46;69.03
3082;BME280;1551;51.046;7.010;2023-03-25T08:34:09;99834.47;;;11.38;68.81
3082;BME280;1551;51.046;7.010;2023-03-25T08:36:58;99835.59;;;11.58;68.50
3082;BME280;1551;51.046;7.010;2023-03-25T08:39:47;99840.91;;;11.52;68.19
3082;BME280;1551;51.046;7.010;2023-03-25T08:42:38;99852.53;;;11.64;68.13
3082;BME280;1551;51.046;7.010;2023-03-25T08:45:27;99858.03;;;11.50;68.08
3082;BME280;1551;51.046;7.010;2023-03-25T08:48:16;99848.44;;;11.26;67.63
3082;BME280;1551;51.046;7.010;2023-03-25T08:51:05;99845.63;;;11.35;67.75
3082;BME280;1551;51.046;7.010;2023-03-25T08:53:54;99847.41;;;11.64;67.57
3082;BME280;1551;51.046;7.010;2023-03-25T08:56:43;99850.03;;;11.62;67.17
3082;BME280;1551;51.046;7.010;2023-03-25T08:59:32;99843.06;;;11.66;67.24
3082;BME280;1551;51.046;7.010;2023-03-25T09:02:22;99844.75;;;11.68;66.64
3082;BME280;1551;51.046;7.010;2023-03-25T09:05:11;99850.63;;;11.72;66.51
3082;BME280;1551;51.046;7.010;2023-03-25T09:08:01;99839.47;;;11.73;66.44
3082;BME280;1551;51.046;7.010;2023-03-25T09:10:49;99839.44;;;11.74;65.63
3082;BME280;1551;51.046;7.010;2023-03-25T09:13:38;99854.91;;;11.71;65.32
3082;BME280;1551;51.046;7.010;2023-03-25T09:16:29;99842.81;;;11.77;65.37
3082;BME280;1551;51.046;7.010;2023-03-25T09:19:18;99835.38;;;11.97;65.03
3082;BME280;1551;51.046;7.010;2023-03-25T09:22:07;99844.50;;;12.05;64.04
3082;BME280;1551;51.046;7.010;2023-03-25T09:24:55;99860.91;;;12.29;63.40
3082;BME280;1551;51.046;7.010;2023-03-25T09:27:44;99845.53;;;12.55;63.12
3082;BME280;1551;51.046;7.010;2023-03-25T09:30:33;99849.69;;;12.85;61.88
3082;BME280;1551;51.046;7.010;2023-03-25T09:33:23;99853.06;;;13.14;61.22
3082;BME280;1551;51.046;7.010;2023-03-25T09:36:12;99844.84;;;13.29;60.47
3082;BME280;1551;51.046;7.010;2023-03-25T09:39:00;99851.63;;;12.79;60.07
3082;BME280;1551;51.046;7.010;2023-03-25T09:42:23;99859.00;;;12.89;60.68
3082;BME280;1551;51.046;7.010;2023-03-25T09:45:34;99866.53;;;13.20;58.88
3082;BME280;1551;51.046;7.010;2023-03-25T09:51:29;99855.53;;;13.17;57.83
3082;BME280;1551;51.046;7.010;2023-03-25T09:54:30;99849.59;;;13.39;57.53
3082;BME280;1551;51.046;7.010;2023-03-25T09:57:24;99839.31;;;13.39;57.54
3082;BME280;1551;51.046;7.010;2023-03-25T10:00:18;99855.50;;;13.41;57.43
3082;BME280;1551;51.046;7.010;2023-03-25T10:06:15;99879.19;;;13.00;57.26
3082;BME280;1551;51.046;7.010;2023-03-25T10:09:29;99858.84;;;12.94;58.06
3082;BME280;1551;51.046;7.010;2023-03-25T10:15:47;99848.66;;;12.91;58.01
3082;BME280;1551;51.046;7.010;2023-03-25T10:18:48;99858.69;;;12.72;58.04
3082;BME280;1551;51.046;7.010;2023-03-25T10:24:43;99855.91;;;12.78;59.52
3082;BME280;1551;51.046;7.010;2023-03-25T10:27:38;99850.19;;;12.70;59.34
3082;BME280;1551;51.046;7.010;2023-03-25T10:30:33;99856.34;;;12.65;59.23
3082;BME280;1551;51.046;7.010;2023-03-25T10:33:56;99890.16;;;12.51;60.64
3082;BME280;1551;51.046;7.010;2023-03-25T10:36:57;99878.50;;;12.41;63.02
3082;BME280;1551;51.046;7.010;2023-03-25T10:39:47;99880.31;;;12.37;63.22
3082;BME280;1551;51.046;7.010;2023-03-25T10:42:44;99868.38;;;12.36;63.21
3082;BME280;1551;51.046;7.010;2023-03-25T10:45:36;99868.31;;;12.66;63.67
3082;BME280;1551;51.046;7.010;2023-03-25T10:48:27;99876.66;;;12.72;62.97
3082;BME280;1551;51.046;7.010;2023-03-25T10:51:20;99883.28;;;12.79;62.32
3082;BME280;1551;51.046;7.010;2023-03-25T10:54:12;99870.38;;;12.81;62.18
3082;BME280;1551;51.046;7.010;2023-03-25T10:57:07;99878.63;;;12.90;61.93
3082;BME280;1551;51.046;7.010;2023-03-25T11:00:08;99884.47;;;12.95;61.63
3082;BME280;1551;51.046;7.010;2023-03-25T11:03:25;99868.34;;;12.90;60.74
3082;BME280;1551;51.046;7.010;2023-03-25T11:09:24;99870.22;;;12.85;59.39
3082;BME280;1551;51.046;7.010;2023-03-25T11:12:17;99877.97;;;13.12;59.60
3082;BME280;1551;51.046;7.010;2023-03-25T11:15:16;99900.97;;;13.41;58.15
3082;BME280;1551;51.046;7.010;2023-03-25T11:21:12;99892.69;;;13.81;56.60
3082;BME280;1551;51.046;7.010;2023-03-25T11:24:05;99869.81;;;14.84;53.36
3082;BME280;1551;51.046;7.010;2023-03-25T11:26:55;99866.50;;;14.16;54.00
3082;BME280;1551;51.046;7.010;2023-03-25T11:29:50;99883.38;;;13.76;55.92
3082;BME280;1551;51.046;7.010;2023-03-25T11:32:40;99897.94;;;13.53;56.79
3082;BME280;1551;51.046;7.010;2023-03-25T11:35:35;99902.34;;;13.25;57.37
3082;BME280;1551;51.046;7.010;2023-03-25T11:38:27;99909.72;;;13.09;58.77
3082;BME280;1551;51.046;7.010;2023-03-25T11:41:19;99892.53;;;13.11;58.36
3082;BME280;1551;51.046;7.010;2023-03-25T11:44:20;99883.31;;;13.04;58.57
3082;BME280;1551;51.046;7.010;2023-03-25T11:47:10;99899.06;;;13.21;59.06
3082;BME280;1551;51.046;7.010;2023-03-25T11:50:00;99912.19;;;13.12;58.45
3082;BME280;1551;51.046;7.010;2023-03-25T11:52:53;99899.09;;;12.93;59.22
3082;BME280;1551;51.046;7.010;2023-03-25T11:56:05;99874.25;;;12.94;59.87
3082;BME280;1551;51.046;7.010;2023-03-25T11:58:58;99858.69;;;12.98;61.15
3082;BME280;1551;51.046;7.010;2023-03-25T12:01:50;99869.75;;;13.00;61.60
3082;BME280;1551;51.046;7.010;2023-03-25T12:05:03;99891.97;;;13.28;61.60
3082;BME280;1551;51.046;7.010;2023-03-25T12:08:04;99860.97;;;13.57;60.90
3082;BME280;1551;51.046;7.010;2023-03-25T12:11:07;99864.22;;;13.62;60.03
3082;BME280;1551;51.046;7.010;2023-03-25T12:17:25;99868.94;;;13.25;60.31
3082;BME280;1551;51.046;7.010;2023-03-25T12:26:17;99870.72;;;13.23;59.68
3082;BME280;1551;51.046;7.010;2023-03-25T12:35:41;99863.00;;;13.23;58.86
3082;BME280;1551;51.046;7.010;2023-03-25T12:42:00;99835.28;;;13.55;57.15
3082;BME280;1551;51.046;7.010;2023-03-25T12:47:54;99843.94;;;14.22;56.31
3082;BME280;1551;51.046;7.010;2023-03-25T13:00:39;99827.69;;;15.46;49.03
3082;BME280;1551;51.046;7.010;2023-03-25T13:03:43;99814.53;;;14.91;49.34
3082;BME280;1551;51.046;7.010;2023-03-25T13:09:51;99822.66;;;14.82;50.15
3082;BME280;1551;51.046;7.010;2023-03-25T13:12:52;99822.19;;;14.73;50.57
3082;BME280;1551;51.046;7.010;2023-03-25T13:15:45;99811.56;;;14.60;50.32
3082;BME280;1551;51.046;7.010;2023-03-25T13:18:39;99815.38;;;14.72;50.08
3082;BME280;1551;51.046;7.010;2023-03-25T13:21:33;99820.56;;;14.50;50.31
3082;BME280;1551;51.046;7.010;2023-03-25T13:24:47;99830.41;;;14.17;50.79
3082;BME280;1551;51.046;7.010;2023-03-25T13:27:39;99830.88;;;14.05;51.72
3082;BME280;1551;51.046;7.010;2023-03-25T13:30:39;99810.63;;;13.96;53.01
3082;BME280;1551;51.046;7.010;2023-03-25T13:33:34;99828.25;;;13.84;54.21
3082;BME280;1551;51.046;7.010;2023-03-25T13:36:28;99893.66;;;13.53;55.57
3082;BME280;1551;51.046;7.010;2023-03-25T13:42:57;99875.09;;;11.82;66.02
3082;BME280;1551;51.046;7.010;2023-03-25T13:46:08;99896.72;;;11.73;68.64
3082;BME280;1551;51.046;7.010;2023-03-25T13:49:17;99907.22;;;11.63;70.45
3082;BME280;1551;51.046;7.010;2023-03-25T13:52:12;99921.31;;;11.48;72.83
3082;BME280;1551;51.046;7.010;2023-03-25T13:55:09;99948.16;;;11.34;73.83
3082;BME280;1551;51.046;7.010;2023-03-25T13:58:27;99915.44;;;11.11;75.95
3082;BME280;1551;51.046;7.010;2023-03-25T14:07:34;99919.38;;;12.47;75.33
3082;BME280;1551;51.046;7.010;2023-03-25T14:13:39;99920.13;;;11.92;77.04
3082;BME280;1551;51.046;7.010;2023-03-25T14:16:34;99919.88;;;11.70;77.97
3082;BME280;1551;51.046;7.010;2023-03-25T14:19:37;99926.13;;;11.59;78.61
3082;BME280;1551;51.046;7.010;2023-03-25T14:22:29;99897.38;;;11.80;79.46
3082;BME280;1551;51.046;7.010;2023-03-25T14:25:20;99908.69;;;12.33;78.29
3082;BME280;1551;51.046;7.010;2023-03-25T14:28:35;99913.97;;;14.07;75.19
3082;BME280;1551;51.046;7.010;2023-03-25T14:31:30;99901.75;;;15.62;67.68
3082;BME280;1551;51.046;7.010;2023-03-25T14:34:24;99893.09;;;16.02;64.60
3082;BME280;1551;51.046;7.010;2023-03-25T14:46:33;99883.28;;;16.10;60.08
3082;BME280;1551;51.046;7.010;2023-03-25T14:49:23;99885.50;;;15.20;62.35
3082;BME280;1551;51.046;7.010;2023-03-25T14:52:22;99883.22;;;15.12;63.57
3082;BME280;1551;51.046;7.010;2023-03-25T14:55:20;99880.25;;;15.01;63.25
3082;BME280;1551;51.046;7.010;2023-03-25T14:58:25;99878.47;;;14.17;64.40
3082;BME280;1551;51.046;7.010;2023-03-25T15:01:17;99856.97;;;13.71;64.77
3082;BME280;1551;51.046;7.010;2023-03-25T15:07:13;99856.91;;;14.42;63.65
3082;BME280;1551;51.046;7.010;2023-03-25T15:10:04;99904.03;;;13.98;63.85
3082;BME280;1551;51.046;7.010;2023-03-25T15:13:06;99874.09;;;13.72;63.71
3082;BME280;1551;51.046;7.010;2023-03-25T15:16:54;99876.75;;;13.46;63.60
3082;BME280;1551;51.046;7.010;2023-03-25T15:19:16;99896.06;;;13.33;64.78
3082;BME280;1551;51.046;7.010;2023-03-25T15:22:16;99897.34;;;13.20;65.68
3082;BME280;1551;51.046;7.010;2023-03-25T15:25:17;99872.94;;;12.81;65.98
3082;BME280;1551;51.046;7.010;2023-03-25T15:28:17;99900.09;;;12.62;66.88
3082;BME280;1551;51.046;7.010;2023-03-25T15:35:10;99905.41;;;12.28;68.99
3082;BME280;1551;51.046;7.010;2023-03-25T15:38:38;99910.97;;;12.14;70.54
3082;BME280;1551;51.046;7.010;2023-03-25T15:44:46;99897.53;;;12.34;71.92
3082;BME280;1551;51.046;7.010;2023-03-25T15:47:55;99879.56;;;12.34;72.67
3082;BME280;1551;51.046;7.010;2023-03-25T15:54:02;99877.47;;;12.47;73.02
3082;BME280;1551;51.046;7.010;2023-03-25T15:57:12;99881.38;;;12.58;72.89
3082;BME280;1551;51.046;7.010;2023-03-25T16:03:36;99882.78;;;12.40;72.64
3082;BME280;1551;51.046;7.010;2023-03-25T16:06:26;99901.66;;;12.38;73.09
3082;BME280;1551;51.046;7.010;2023-03-25T16:09:19;99901.00;;;12.33;73.34
3082;BME280;1551;51.046;7.010;2023-03-25T16:12:09;99909.53;;;12.04;74.43
3082;BME280;1551;51.046;7.010;2023-03-25T16:14:58;99913.44;;;11.87;75.82
3082;BME280;1551;51.046;7.010;2023-03-25T16:17:49;99889.34;;;11.61;76.38
3082;BME280;1551;51.046;7.010;2023-03-25T16:20:38;99867.84;;;11.35;77.39
3082;BME280;1551;51.046;7.010;2023-03-25T16:23:28;99859.09;;;11.43;78.75
3082;BME280;1551;51.046;7.010;2023-03-25T16:26:41;99868.78;;;11.63;79.18
3082;BME280;1551;51.046;7.010;2023-03-25T16:29:31;99873.84;;;11.97;78.24
3082;BME280;1551;51.046;7.010;2023-03-25T16:32:23;99884.63;;;12.08;77.02
3082;BME280;1551;51.046;7.010;2023-03-25T16:35:26;99865.50;;;11.90;76.43
3082;BME280;1551;51.046;7.010;2023-03-25T16:38:18;99876.47;;;11.95;76.56
3082;BME280;1551;51.046;7.010;2023-03-25T16:41:13;99874.59;;;12.00;75.95
3082;BME280;1551;51.046;7.010;2023-03-25T16:44:02;99872.84;;;12.02;75.53
3082;BME280;1551;51.046;7.010;2023-03-25T16:46:52;99872.03;;;12.00;75.81
3082;BME280;1551;51.046;7.010;2023-03-25T16:49:45;99870.97;;;12.07;76.02
3082;BME280;1551;51.046;7.010;2023-03-25T16:52:35;99871.72;;;12.11;76.25
3082;BME280;1551;51.046;7.010;2023-03-25T16:55:31;99869.06;;;12.14;76.47
3082;BME280;1551;51.046;7.010;2023-03-25T16:58:23;99881.69;;;12.20;76.38
3082;BME280;1551;51.046;7.010;2023-03-25T17:01:13;99906.47;;;12.21;76.24
3082;BME280;1551;51.046;7.010;2023-03-25T17:04:17;99909.13;;;12.18;76.62
3082;BME280;1551;51.046;7.010;2023-03-25T17:07:11;99953.38;;;11.95;76.51
3082;BME280;1551;51.046;7.010;2023-03-25T17:10:02;99988.81;;;11.81;76.69
3082;BME280;1551;51.046;7.010;2023-03-25T17:12:58;99955.25;;;11.56;78.38
3082;BME280;1551;51.046;7.010;2023-03-25T17:15:50;99941.63;;;11.54;78.69
3082;BME280;1551;51.046;7.010;2023-03-25T17:18:41;99931.94;;;11.33;78.26
3082;BME280;1551;51.046;7.010;2023-03-25T17:21:33;99938.53;;;11.08;78.21
3082;BME280;1551;51.046;7.010;2023-03-25T17:24:23;99937.13;;;10.96;79.40
3082;BME280;1551;51.046;7.010;2023-03-25T17:27:36;99948.34;;;10.91;78.78
3082;BME280;1551;51.046;7.010;2023-03-25T17:30:42;99953.44;;;10.91;79.44